EJA812 KSAN-KVNY
Flight info
| Callsign | EJA812 |
|---|---|
| Flight time | N/A |
| Altitude | 18000 |
| Route | CWARD2 LAX CANOG |
| Aircraft | C700/M-SBDGHM1RWXY/LB2 |
Departure
| Time | 2026-05-04 00:32 |
|---|---|
| Airport | San Diego International Airport (KSAN) |
Arrival
| Time | N/A |
|---|---|
| Airport | Van Nuys Airport (KVNY) |
| Time | Latitude | Longitude | Altitude | Speed | Heading |
|---|---|---|---|---|---|
| 2026-05-04 00:22 | 32.73432 | -117.17962 | 27 ft | 0 kts | 302° |
| 2026-05-04 00:23 | 32.73431 | -117.17959 | 8 ft | 0 kts | 96° |
| 2026-05-04 00:28 | 32.73424 | -117.17945 | 11 ft | 3 kts | 140° |
| 2026-05-04 00:28 | 32.73417 | -117.17942 | 16 ft | 0 kts | 165° |
| 2026-05-04 00:29 | 32.73416 | -117.17942 | 16 ft | 1 kts | 167° |
| 2026-05-04 00:29 | 32.73395 | -117.17943 | 18 ft | 2 kts | 186° |
| 2026-05-04 00:29 | 32.73391 | -117.17944 | 18 ft | 0 kts | 187° |
| 2026-05-04 00:30 | 32.73379 | -117.17946 | 18 ft | 9 kts | 188° |
| 2026-05-04 00:30 | 32.73298 | -117.17936 | 16 ft | 15 kts | 122° |
| 2026-05-04 00:30 | 32.73263 | -117.17796 | 15 ft | 20 kts | 105° |
| 2026-05-04 00:30 | 32.73234 | -117.17692 | 16 ft | 11 kts | 125° |
| 2026-05-04 00:31 | 32.73159 | -117.17633 | 15 ft | 15 kts | 134° |
| 2026-05-04 00:31 | 32.73120 | -117.17572 | 16 ft | 4 kts | 144° |
| 2026-05-04 00:31 | 32.73102 | -117.17558 | 15 ft | 0 kts | 144° |
| 2026-05-04 00:31 | 32.73101 | -117.17557 | 15 ft | 3 kts | 144° |
| 2026-05-04 00:32 | 32.73048 | -117.17526 | 16 ft | 12 kts | 177° |
| 2026-05-04 00:32 | 32.73026 | -117.17608 | 15 ft | 18 kts | 285° |
| 2026-05-04 00:32 | 32.73147 | -117.18102 | 14 ft | 113 kts | 286° |
| 2026-05-04 00:32 | 32.73445 | -117.19248 | 637 ft | 170 kts | 287° |
| 2026-05-04 00:33 | 32.73813 | -117.20741 | 1862 ft | 205 kts | 285° |
| 2026-05-04 00:33 | 32.75257 | -117.23922 | 5129 ft | 240 kts | 309° |
| 2026-05-04 00:33 | 32.76489 | -117.25607 | 6005 ft | 281 kts | 306° |
| 2026-05-04 00:34 | 32.77650 | -117.27428 | 7336 ft | 278 kts | 301° |
| 2026-05-04 00:34 | 32.78757 | -117.29290 | 9305 ft | 273 kts | 300° |
| 2026-05-04 00:34 | 32.79824 | -117.31109 | 11315 ft | 260 kts | 300° |
| 2026-05-04 00:34 | 32.80842 | -117.32769 | 13459 ft | 246 kts | 300° |
| 2026-05-04 00:35 | 32.82033 | -117.34668 | 11576 ft | 324 kts | 303° |
| 2026-05-04 00:35 | 32.83445 | -117.36803 | 10668 ft | 327 kts | 304° |
| 2026-05-04 00:35 | 32.84846 | -117.38803 | 10500 ft | 303 kts | 306° |
| 2026-05-04 00:35 | 32.86166 | -117.40581 | 10854 ft | 272 kts | 308° |
| 2026-05-04 00:36 | 32.87488 | -117.42174 | 11461 ft | 277 kts | 311° |